sensor_id;sensor_type;location;lat;lon;timestamp;P1;durP1;ratioP1;P2;durP2;ratioP2
70433;SDS011;57876;47.792;12.960;2023-03-01T00:01:38;6.28;;;2.72;;
70433;SDS011;57876;47.792;12.960;2023-03-01T00:04:03;6.77;;;2.70;;
70433;SDS011;57876;47.792;12.960;2023-03-01T00:06:27;6.70;;;3.00;;
70433;SDS011;57876;47.792;12.960;2023-03-01T00:08:52;7.10;;;2.70;;
70433;SDS011;57876;47.792;12.960;2023-03-01T00:11:21;6.05;;;2.47;;
70433;SDS011;57876;47.792;12.960;2023-03-01T00:13:49;6.53;;;2.92;;
70433;SDS011;57876;47.792;12.960;2023-03-01T00:16:20;6.43;;;2.72;;
70433;SDS011;57876;47.792;12.960;2023-03-01T00:18:47;6.10;;;2.57;;
70433;SDS011;57876;47.792;12.960;2023-03-01T00:21:11;6.47;;;2.75;;
70433;SDS011;57876;47.792;12.960;2023-03-01T00:23:37;6.33;;;2.67;;
70433;SDS011;57876;47.792;12.960;2023-03-01T00:26:02;6.65;;;2.88;;
70433;SDS011;57876;47.792;12.960;2023-03-01T00:28:30;6.38;;;2.60;;
70433;SDS011;57876;47.792;12.960;2023-03-01T00:30:55;6.88;;;2.63;;
70433;SDS011;57876;47.792;12.960;2023-03-01T00:33:19;7.23;;;2.67;;
70433;SDS011;57876;47.792;12.960;2023-03-01T00:35:44;6.40;;;2.47;;
70433;SDS011;57876;47.792;12.960;2023-03-01T00:38:08;6.13;;;2.73;;
70433;SDS011;57876;47.792;12.960;2023-03-01T00:40:33;6.87;;;2.60;;
70433;SDS011;57876;47.792;12.960;2023-03-01T00:42:59;6.57;;;2.70;;
70433;SDS011;57876;47.792;12.960;2023-03-01T00:45:24;6.83;;;2.70;;
70433;SDS011;57876;47.792;12.960;2023-03-01T00:47:49;6.30;;;2.57;;
70433;SDS011;57876;47.792;12.960;2023-03-01T00:50:14;6.15;;;2.63;;
70433;SDS011;57876;47.792;12.960;2023-03-01T00:52:38;6.13;;;2.53;;
70433;SDS011;57876;47.792;12.960;2023-03-01T00:55:03;6.80;;;2.90;;
70433;SDS011;57876;47.792;12.960;2023-03-01T00:57:28;6.43;;;2.72;;
70433;SDS011;57876;47.792;12.960;2023-03-01T00:59:53;7.57;;;3.20;;
70433;SDS011;57876;47.792;12.960;2023-03-01T01:02:18;6.17;;;2.57;;
70433;SDS011;57876;47.792;12.960;2023-03-01T01:04:44;6.55;;;2.88;;
70433;SDS011;57876;47.792;12.960;2023-03-01T01:07:09;6.95;;;2.70;;
70433;SDS011;57876;47.792;12.960;2023-03-01T01:09:33;6.10;;;2.43;;
70433;SDS011;57876;47.792;12.960;2023-03-01T01:11:58;6.23;;;2.83;;
70433;SDS011;57876;47.792;12.960;2023-03-01T01:14:22;6.60;;;2.80;;
70433;SDS011;57876;47.792;12.960;2023-03-01T01:16:47;6.97;;;2.53;;
70433;SDS011;57876;47.792;12.960;2023-03-01T01:19:11;6.22;;;2.70;;
70433;SDS011;57876;47.792;12.960;2023-03-01T01:21:37;6.10;;;2.47;;
70433;SDS011;57876;47.792;12.960;2023-03-01T01:24:02;6.87;;;2.87;;
70433;SDS011;57876;47.792;12.960;2023-03-01T01:26:28;7.20;;;3.20;;
70433;SDS011;57876;47.792;12.960;2023-03-01T01:28:55;6.68;;;2.97;;
70433;SDS011;57876;47.792;12.960;2023-03-01T01:31:20;6.70;;;2.80;;
70433;SDS011;57876;47.792;12.960;2023-03-01T01:33:47;7.43;;;2.75;;
70433;SDS011;57876;47.792;12.960;2023-03-01T01:36:11;6.10;;;2.40;;
70433;SDS011;57876;47.792;12.960;2023-03-01T01:38:37;6.27;;;2.80;;
70433;SDS011;57876;47.792;12.960;2023-03-01T01:41:02;6.65;;;2.85;;
70433;SDS011;57876;47.792;12.960;2023-03-01T01:43:29;7.00;;;2.70;;
70433;SDS011;57876;47.792;12.960;2023-03-01T01:45:56;5.80;;;2.30;;
70433;SDS011;57876;47.792;12.960;2023-03-01T01:48:28;6.20;;;2.63;;
70433;SDS011;57876;47.792;12.960;2023-03-01T01:51:04;6.65;;;2.70;;
70433;SDS011;57876;47.792;12.960;2023-03-01T01:53:28;5.90;;;2.60;;
70433;SDS011;57876;47.792;12.960;2023-03-01T01:55:54;6.80;;;2.90;;
70433;SDS011;57876;47.792;12.960;2023-03-01T01:58:21;5.70;;;2.30;;
70433;SDS011;57876;47.792;12.960;2023-03-01T02:00:48;6.65;;;2.83;;
70433;SDS011;57876;47.792;12.960;2023-03-01T02:03:13;6.30;;;2.80;;
70433;SDS011;57876;47.792;12.960;2023-03-01T02:06:00;5.60;;;2.10;;
70433;SDS011;57876;47.792;12.960;2023-03-01T02:08:31;5.93;;;2.50;;
70433;SDS011;57876;47.792;12.960;2023-03-01T02:11:01;6.45;;;2.75;;
70433;SDS011;57876;47.792;12.960;2023-03-01T02:13:28;5.65;;;2.28;;
70433;SDS011;57876;47.792;12.960;2023-03-01T02:15:52;7.17;;;2.70;;
70433;SDS011;57876;47.792;12.960;2023-03-01T02:18:18;5.70;;;2.30;;
70433;SDS011;57876;47.792;12.960;2023-03-01T02:23:40;7.25;;;2.55;;
70433;SDS011;57876;47.792;12.960;2023-03-01T02:26:09;6.75;;;2.58;;
70433;SDS011;57876;47.792;12.960;2023-03-01T02:28:40;6.07;;;2.63;;
70433;SDS011;57876;47.792;12.960;2023-03-01T02:31:08;6.75;;;2.83;;
70433;SDS011;57876;47.792;12.960;2023-03-01T02:33:53;6.18;;;2.45;;
70433;SDS011;57876;47.792;12.960;2023-03-01T02:36:19;7.50;;;3.10;;
70433;SDS011;57876;47.792;12.960;2023-03-01T02:38:50;6.45;;;2.90;;
70433;SDS011;57876;47.792;12.960;2023-03-01T02:41:17;5.73;;;2.43;;
70433;SDS011;57876;47.792;12.960;2023-03-01T02:43:44;6.45;;;2.58;;
70433;SDS011;57876;47.792;12.960;2023-03-01T02:46:13;6.55;;;3.00;;
70433;SDS011;57876;47.792;12.960;2023-03-01T02:48:49;6.35;;;2.63;;
70433;SDS011;57876;47.792;12.960;2023-03-01T02:53:49;6.50;;;2.67;;
70433;SDS011;57876;47.792;12.960;2023-03-01T02:56:29;6.60;;;2.67;;
70433;SDS011;57876;47.792;12.960;2023-03-01T02:58:54;7.63;;;2.90;;
70433;SDS011;57876;47.792;12.960;2023-03-01T03:01:19;6.67;;;3.10;;
70433;SDS011;57876;47.792;12.960;2023-03-01T03:03:44;6.70;;;2.67;;
70433;SDS011;57876;47.792;12.960;2023-03-01T03:06:09;6.00;;;2.63;;
70433;SDS011;57876;47.792;12.960;2023-03-01T03:08:33;6.97;;;2.77;;
70433;SDS011;57876;47.792;12.960;2023-03-01T03:10:58;5.77;;;2.23;;
70433;SDS011;57876;47.792;12.960;2023-03-01T03:13:22;6.47;;;2.60;;
70433;SDS011;57876;47.792;12.960;2023-03-01T03:15:52;6.77;;;2.70;;
70433;SDS011;57876;47.792;12.960;2023-03-01T03:18:16;6.53;;;2.58;;
70433;SDS011;57876;47.792;12.960;2023-03-01T03:20:42;6.30;;;2.73;;
70433;SDS011;57876;47.792;12.960;2023-03-01T03:23:07;5.93;;;2.40;;
70433;SDS011;57876;47.792;12.960;2023-03-01T03:25:32;5.85;;;2.33;;
70433;SDS011;57876;47.792;12.960;2023-03-01T03:27:56;6.03;;;2.60;;
70433;SDS011;57876;47.792;12.960;2023-03-01T03:30:22;5.97;;;2.42;;
70433;SDS011;57876;47.792;12.960;2023-03-01T03:32:54;6.72;;;2.90;;
70433;SDS011;57876;47.792;12.960;2023-03-01T03:35:24;6.27;;;2.53;;
70433;SDS011;57876;47.792;12.960;2023-03-01T03:37:52;6.90;;;2.80;;
70433;SDS011;57876;47.792;12.960;2023-03-01T03:40:26;6.43;;;2.63;;
70433;SDS011;57876;47.792;12.960;2023-03-01T03:42:51;6.88;;;2.58;;
70433;SDS011;57876;47.792;12.960;2023-03-01T03:45:16;6.83;;;2.93;;
70433;SDS011;57876;47.792;12.960;2023-03-01T03:47:41;6.40;;;2.80;;
70433;SDS011;57876;47.792;12.960;2023-03-01T03:50:06;6.47;;;2.90;;
70433;SDS011;57876;47.792;12.960;2023-03-01T03:52:31;6.60;;;2.97;;
70433;SDS011;57876;47.792;12.960;2023-03-01T03:54:55;5.87;;;2.80;;
70433;SDS011;57876;47.792;12.960;2023-03-01T03:57:19;6.47;;;2.70;;
70433;SDS011;57876;47.792;12.960;2023-03-01T03:59:45;6.45;;;2.78;;
70433;SDS011;57876;47.792;12.960;2023-03-01T04:02:09;6.17;;;2.47;;
70433;SDS011;57876;47.792;12.960;2023-03-01T04:04:33;6.33;;;2.60;;
70433;SDS011;57876;47.792;12.960;2023-03-01T04:06:58;6.03;;;2.78;;
70433;SDS011;57876;47.792;12.960;2023-03-01T04:09:22;7.07;;;3.00;;
70433;SDS011;57876;47.792;12.960;2023-03-01T04:11:50;6.47;;;2.90;;
70433;SDS011;57876;47.792;12.960;2023-03-01T04:14:14;6.53;;;2.73;;
70433;SDS011;57876;47.792;12.960;2023-03-01T04:16:39;6.73;;;3.00;;
70433;SDS011;57876;47.792;12.960;2023-03-01T04:19:03;6.67;;;3.03;;
70433;SDS011;57876;47.792;12.960;2023-03-01T04:21:30;7.25;;;3.13;;
70433;SDS011;57876;47.792;12.960;2023-03-01T04:23:54;6.60;;;2.80;;
70433;SDS011;57876;47.792;12.960;2023-03-01T04:26:19;6.55;;;2.80;;
70433;SDS011;57876;47.792;12.960;2023-03-01T04:28:44;6.90;;;2.87;;
70433;SDS011;57876;47.792;12.960;2023-03-01T04:31:11;6.38;;;2.65;;
70433;SDS011;57876;47.792;12.960;2023-03-01T04:33:37;6.72;;;2.90;;
70433;SDS011;57876;47.792;12.960;2023-03-01T04:36:03;7.07;;;3.03;;
70433;SDS011;57876;47.792;12.960;2023-03-01T04:38:29;6.65;;;2.45;;
70433;SDS011;57876;47.792;12.960;2023-03-01T04:40:53;6.23;;;2.60;;
70433;SDS011;57876;47.792;12.960;2023-03-01T04:43:17;6.90;;;2.43;;
70433;SDS011;57876;47.792;12.960;2023-03-01T04:45:42;6.33;;;2.83;;
70433;SDS011;57876;47.792;12.960;2023-03-01T04:48:06;6.63;;;2.80;;
70433;SDS011;57876;47.792;12.960;2023-03-01T04:50:31;6.80;;;2.80;;
70433;SDS011;57876;47.792;12.960;2023-03-01T04:52:56;6.15;;;2.50;;
70433;SDS011;57876;47.792;12.960;2023-03-01T04:55:23;7.07;;;2.90;;
70433;SDS011;57876;47.792;12.960;2023-03-01T04:57:49;6.28;;;2.80;;
70433;SDS011;57876;47.792;12.960;2023-03-01T05:00:14;6.10;;;2.70;;
70433;SDS011;57876;47.792;12.960;2023-03-01T05:02:48;7.05;;;2.85;;
70433;SDS011;57876;47.792;12.960;2023-03-01T05:05:17;6.95;;;2.83;;
70433;SDS011;57876;47.792;12.960;2023-03-01T05:07:42;7.57;;;2.70;;
70433;SDS011;57876;47.792;12.960;2023-03-01T05:10:06;6.97;;;2.63;;
70433;SDS011;57876;47.792;12.960;2023-03-01T05:12:31;6.53;;;2.72;;
70433;SDS011;57876;47.792;12.960;2023-03-01T05:14:55;5.90;;;2.77;;
70433;SDS011;57876;47.792;12.960;2023-03-01T05:17:20;6.93;;;2.60;;
70433;SDS011;57876;47.792;12.960;2023-03-01T05:19:44;6.50;;;2.70;;
70433;SDS011;57876;47.792;12.960;2023-03-01T05:22:10;6.80;;;2.75;;
70433;SDS011;57876;47.792;12.960;2023-03-01T05:24:34;6.23;;;2.73;;
70433;SDS011;57876;47.792;12.960;2023-03-01T05:26:59;6.00;;;2.47;;
70433;SDS011;57876;47.792;12.960;2023-03-01T05:29:26;6.38;;;2.78;;
70433;SDS011;57876;47.792;12.960;2023-03-01T05:31:55;6.72;;;2.95;;
70433;SDS011;57876;47.792;12.960;2023-03-01T05:34:25;6.63;;;2.63;;
70433;SDS011;57876;47.792;12.960;2023-03-01T05:36:51;6.73;;;2.80;;
70433;SDS011;57876;47.792;12.960;2023-03-01T05:39:17;6.97;;;2.95;;
70433;SDS011;57876;47.792;12.960;2023-03-01T05:41:41;7.03;;;3.23;;
70433;SDS011;57876;47.792;12.960;2023-03-01T05:44:06;6.53;;;3.15;;
70433;SDS011;57876;47.792;12.960;2023-03-01T05:46:30;6.33;;;2.93;;
70433;SDS011;57876;47.792;12.960;2023-03-01T05:48:55;6.47;;;3.07;;
70433;SDS011;57876;47.792;12.960;2023-03-01T05:51:20;6.13;;;2.77;;
70433;SDS011;57876;47.792;12.960;2023-03-01T05:53:46;7.10;;;3.15;;
70433;SDS011;57876;47.792;12.960;2023-03-01T05:56:10;6.47;;;3.10;;
70433;SDS011;57876;47.792;12.960;2023-03-01T05:58:34;6.80;;;2.77;;
70433;SDS011;57876;47.792;12.960;2023-03-01T06:00:59;7.17;;;3.07;;
70433;SDS011;57876;47.792;12.960;2023-03-01T06:03:23;6.53;;;2.87;;
70433;SDS011;57876;47.792;12.960;2023-03-01T06:05:47;6.77;;;3.17;;
70433;SDS011;57876;47.792;12.960;2023-03-01T06:08:12;7.50;;;3.37;;
70433;SDS011;57876;47.792;12.960;2023-03-01T06:10:37;7.32;;;3.10;;
70433;SDS011;57876;47.792;12.960;2023-03-01T06:13:02;7.10;;;3.30;;
70433;SDS011;57876;47.792;12.960;2023-03-01T06:15:29;6.63;;;3.10;;
70433;SDS011;57876;47.792;12.960;2023-03-01T06:17:54;6.80;;;3.37;;
70433;SDS011;57876;47.792;12.960;2023-03-01T06:20:21;7.65;;;3.25;;
70433;SDS011;57876;47.792;12.960;2023-03-01T06:22:47;6.60;;;3.25;;
70433;SDS011;57876;47.792;12.960;2023-03-01T06:25:13;6.93;;;3.00;;
70433;SDS011;57876;47.792;12.960;2023-03-01T06:27:40;6.50;;;3.00;;
70433;SDS011;57876;47.792;12.960;2023-03-01T06:30:06;6.38;;;2.72;;
70433;SDS011;57876;47.792;12.960;2023-03-01T06:32:31;7.55;;;3.17;;
70433;SDS011;57876;47.792;12.960;2023-03-01T06:34:56;6.13;;;2.33;;
70433;SDS011;57876;47.792;12.960;2023-03-01T06:37:22;6.85;;;2.78;;
70433;SDS011;57876;47.792;12.960;2023-03-01T06:39:46;6.70;;;2.90;;
70433;SDS011;57876;47.792;12.960;2023-03-01T06:42:11;7.43;;;3.10;;
70433;SDS011;57876;47.792;12.960;2023-03-01T06:44:35;6.28;;;2.75;;
70433;SDS011;57876;47.792;12.960;2023-03-01T06:47:00;6.78;;;2.90;;
70433;SDS011;57876;47.792;12.960;2023-03-01T06:49:25;6.93;;;3.13;;
70433;SDS011;57876;47.792;12.960;2023-03-01T06:51:49;6.27;;;2.60;;
70433;SDS011;57876;47.792;12.960;2023-03-01T06:54:14;7.50;;;2.73;;
70433;SDS011;57876;47.792;12.960;2023-03-01T06:56:38;6.68;;;2.97;;
70433;SDS011;57876;47.792;12.960;2023-03-01T06:59:03;7.37;;;2.90;;
70433;SDS011;57876;47.792;12.960;2023-03-01T07:01:28;6.30;;;2.77;;
70433;SDS011;57876;47.792;12.960;2023-03-01T07:03:53;6.70;;;2.60;;
70433;SDS011;57876;47.792;12.960;2023-03-01T07:06:17;7.30;;;2.97;;
70433;SDS011;57876;47.792;12.960;2023-03-01T07:08:42;6.80;;;3.10;;
70433;SDS011;57876;47.792;12.960;2023-03-01T07:11:06;7.82;;;3.25;;
70433;SDS011;57876;47.792;12.960;2023-03-01T07:13:31;6.70;;;3.00;;
70433;SDS011;57876;47.792;12.960;2023-03-01T07:15:56;6.82;;;2.97;;
70433;SDS011;57876;47.792;12.960;2023-03-01T07:18:20;7.23;;;3.33;;
70433;SDS011;57876;47.792;12.960;2023-03-01T07:20:45;6.70;;;2.70;;
70433;SDS011;57876;47.792;12.960;2023-03-01T07:23:09;7.10;;;3.10;;
70433;SDS011;57876;47.792;12.960;2023-03-01T07:25:34;6.37;;;2.80;;
70433;SDS011;57876;47.792;12.960;2023-03-01T07:27:58;6.87;;;3.27;;
70433;SDS011;57876;47.792;12.960;2023-03-01T07:30:23;7.18;;;3.10;;
70433;SDS011;57876;47.792;12.960;2023-03-01T07:32:49;6.73;;;3.40;;
70433;SDS011;57876;47.792;12.960;2023-03-01T07:35:16;6.97;;;3.28;;
70433;SDS011;57876;47.792;12.960;2023-03-01T07:37:40;6.80;;;3.27;;
70433;SDS011;57876;47.792;12.960;2023-03-01T07:40:05;6.53;;;2.80;;
70433;SDS011;57876;47.792;12.960;2023-03-01T07:42:30;7.43;;;3.20;;
70433;SDS011;57876;47.792;12.960;2023-03-01T07:44:55;7.43;;;3.40;;
70433;SDS011;57876;47.792;12.960;2023-03-01T07:47:19;7.10;;;2.97;;
70433;SDS011;57876;47.792;12.960;2023-03-01T07:49:43;7.37;;;3.40;;
70433;SDS011;57876;47.792;12.960;2023-03-01T07:52:09;6.73;;;3.10;;
70433;SDS011;57876;47.792;12.960;2023-03-01T07:54:35;7.65;;;3.45;;
70433;SDS011;57876;47.792;12.960;2023-03-01T07:56:59;6.97;;;3.17;;
70433;SDS011;57876;47.792;12.960;2023-03-01T07:59:24;6.23;;;3.00;;
70433;SDS011;57876;47.792;12.960;2023-03-01T08:01:52;7.40;;;3.22;;
70433;SDS011;57876;47.792;12.960;2023-03-01T08:04:17;7.60;;;3.10;;
70433;SDS011;57876;47.792;12.960;2023-03-01T08:06:41;7.63;;;3.13;;
70433;SDS011;57876;47.792;12.960;2023-03-01T08:09:06;7.43;;;2.83;;
70433;SDS011;57876;47.792;12.960;2023-03-01T08:11:31;6.97;;;2.93;;
70433;SDS011;57876;47.792;12.960;2023-03-01T08:13:56;7.60;;;3.58;;
70433;SDS011;57876;47.792;12.960;2023-03-01T08:16:21;6.68;;;3.17;;
70433;SDS011;57876;47.792;12.960;2023-03-01T08:18:45;7.30;;;3.00;;
70433;SDS011;57876;47.792;12.960;2023-03-01T08:21:11;6.93;;;3.10;;
70433;SDS011;57876;47.792;12.960;2023-03-01T08:23:38;7.05;;;2.70;;
70433;SDS011;57876;47.792;12.960;2023-03-01T08:26:03;7.32;;;3.20;;
70433;SDS011;57876;47.792;12.960;2023-03-01T08:28:34;7.67;;;3.63;;
70433;SDS011;57876;47.792;12.960;2023-03-01T08:30:58;7.00;;;3.15;;
70433;SDS011;57876;47.792;12.960;2023-03-01T08:33:23;7.97;;;3.53;;
70433;SDS011;57876;47.792;12.960;2023-03-01T08:35:48;8.73;;;4.18;;
70433;SDS011;57876;47.792;12.960;2023-03-01T08:38:12;8.00;;;3.90;;
70433;SDS011;57876;47.792;12.960;2023-03-01T08:40:36;8.80;;;4.17;;
70433;SDS011;57876;47.792;12.960;2023-03-01T08:43:01;8.50;;;4.53;;
70433;SDS011;57876;47.792;12.960;2023-03-01T08:45:27;11.00;;;4.40;;
70433;SDS011;57876;47.792;12.960;2023-03-01T08:47:52;9.48;;;4.38;;
70433;SDS011;57876;47.792;12.960;2023-03-01T08:50:17;7.63;;;4.00;;
70433;SDS011;57876;47.792;12.960;2023-03-01T08:52:41;8.43;;;4.18;;
70433;SDS011;57876;47.792;12.960;2023-03-01T08:55:06;8.83;;;4.40;;
70433;SDS011;57876;47.792;12.960;2023-03-01T08:57:31;7.32;;;3.70;;
70433;SDS011;57876;47.792;12.960;2023-03-01T08:59:55;8.07;;;4.13;;
70433;SDS011;57876;47.792;12.960;2023-03-01T09:02:20;7.67;;;3.80;;
70433;SDS011;57876;47.792;12.960;2023-03-01T09:04:44;8.03;;;3.97;;
70433;SDS011;57876;47.792;12.960;2023-03-01T09:07:09;7.93;;;3.50;;
70433;SDS011;57876;47.792;12.960;2023-03-01T09:09:33;8.90;;;4.33;;
70433;SDS011;57876;47.792;12.960;2023-03-01T09:11:58;8.45;;;4.22;;
70433;SDS011;57876;47.792;12.960;2023-03-01T09:14:23;9.63;;;4.63;;
70433;SDS011;57876;47.792;12.960;2023-03-01T09:16:47;9.23;;;4.80;;
70433;SDS011;57876;47.792;12.960;2023-03-01T09:19:11;11.37;;;4.93;;
70433;SDS011;57876;47.792;12.960;2023-03-01T09:21:36;10.30;;;4.75;;
70433;SDS011;57876;47.792;12.960;2023-03-01T09:24:01;9.77;;;4.32;;
70433;SDS011;57876;47.792;12.960;2023-03-01T09:26:26;9.80;;;4.83;;
70433;SDS011;57876;47.792;12.960;2023-03-01T09:28:52;9.48;;;4.70;;
70433;SDS011;57876;47.792;12.960;2023-03-01T09:31:19;10.80;;;4.85;;
70433;SDS011;57876;47.792;12.960;2023-03-01T09:33:45;8.63;;;3.70;;
70433;SDS011;57876;47.792;12.960;2023-03-01T09:36:12;10.07;;;4.72;;
70433;SDS011;57876;47.792;12.960;2023-03-01T09:38:38;9.00;;;4.53;;
70433;SDS011;57876;47.792;12.960;2023-03-01T09:41:08;9.00;;;4.10;;
70433;SDS011;57876;47.792;12.960;2023-03-01T09:43:47;11.15;;;4.07;;
70433;SDS011;57876;47.792;12.960;2023-03-01T09:46:20;10.02;;;4.68;;
70433;SDS011;57876;47.792;12.960;2023-03-01T09:48:51;7.75;;;3.70;;
70433;SDS011;57876;47.792;12.960;2023-03-01T09:51:24;8.68;;;4.10;;
70433;SDS011;57876;47.792;12.960;2023-03-01T09:53:53;10.53;;;4.47;;
70433;SDS011;57876;47.792;12.960;2023-03-01T10:04:23;8.85;;;4.13;;
70433;SDS011;57876;47.792;12.960;2023-03-01T10:09:39;7.70;;;3.90;;
70433;SDS011;57876;47.792;12.960;2023-03-01T10:12:19;8.15;;;4.03;;
70433;SDS011;57876;47.792;12.960;2023-03-01T10:20:22;8.73;;;3.50;;
70433;SDS011;57876;47.792;12.960;2023-03-01T10:22:49;8.07;;;3.65;;
70433;SDS011;57876;47.792;12.960;2023-03-01T10:25:17;7.47;;;3.47;;
70433;SDS011;57876;47.792;12.960;2023-03-01T10:30:50;7.38;;;3.42;;
70433;SDS011;57876;47.792;12.960;2023-03-01T10:35:47;7.80;;;3.70;;
70433;SDS011;57876;47.792;12.960;2023-03-01T10:38:12;7.70;;;3.13;;
70433;SDS011;57876;47.792;12.960;2023-03-01T10:40:49;7.50;;;3.58;;
70433;SDS011;57876;47.792;12.960;2023-03-01T10:43:19;7.55;;;3.40;;
70433;SDS011;57876;47.792;12.960;2023-03-01T10:45:44;8.60;;;3.80;;
70433;SDS011;57876;47.792;12.960;2023-03-01T10:50:50;7.70;;;3.50;;
70433;SDS011;57876;47.792;12.960;2023-03-01T10:53:31;7.18;;;3.20;;
70433;SDS011;57876;47.792;12.960;2023-03-01T10:58:36;7.15;;;2.88;;
70433;SDS011;57876;47.792;12.960;2023-03-01T11:01:03;7.60;;;3.53;;
70433;SDS011;57876;47.792;12.960;2023-03-01T11:03:38;7.47;;;2.83;;
70433;SDS011;57876;47.792;12.960;2023-03-01T11:08:46;6.25;;;3.03;;
70433;SDS011;57876;47.792;12.960;2023-03-01T11:14:06;7.65;;;3.42;;
70433;SDS011;57876;47.792;12.960;2023-03-01T11:16:45;7.00;;;3.10;;
70433;SDS011;57876;47.792;12.960;2023-03-01T11:21:41;6.80;;;3.50;;
70433;SDS011;57876;47.792;12.960;2023-03-01T11:25:11;7.65;;;3.33;;
70433;SDS011;57876;47.792;12.960;2023-03-01T11:27:21;7.30;;;3.10;;
70433;SDS011;57876;47.792;12.960;2023-03-01T11:29:52;6.68;;;3.08;;
70433;SDS011;57876;47.792;12.960;2023-03-01T11:32:24;7.90;;;3.50;;
70433;SDS011;57876;47.792;12.960;2023-03-01T11:35:05;7.07;;;2.90;;
70433;SDS011;57876;47.792;12.960;2023-03-01T11:38:25;7.45;;;3.08;;
70433;SDS011;57876;47.792;12.960;2023-03-01T11:40:47;7.40;;;3.20;;
70433;SDS011;57876;47.792;12.960;2023-03-01T11:43:28;7.40;;;3.13;;
70433;SDS011;57876;47.792;12.960;2023-03-01T11:46:02;7.20;;;3.03;;
70433;SDS011;57876;47.792;12.960;2023-03-01T11:51:08;6.70;;;3.17;;
70433;SDS011;57876;47.792;12.960;2023-03-01T12:02:07;6.93;;;2.80;;
70433;SDS011;57876;47.792;12.960;2023-03-01T12:10:27;6.85;;;2.78;;
70433;SDS011;57876;47.792;12.960;2023-03-01T12:16:01;6.75;;;3.10;;
70433;SDS011;57876;47.792;12.960;2023-03-01T12:18:49;6.35;;;2.92;;
70433;SDS011;57876;47.792;12.960;2023-03-01T12:21:30;6.60;;;2.90;;
70433;SDS011;57876;47.792;12.960;2023-03-01T12:29:42;6.68;;;2.80;;
70433;SDS011;57876;47.792;12.960;2023-03-01T12:32:27;6.28;;;2.70;;
70433;SDS011;57876;47.792;12.960;2023-03-01T12:37:33;8.40;;;3.13;;
70433;SDS011;57876;47.792;12.960;2023-03-01T12:50:53;7.15;;;3.22;;
70433;SDS011;57876;47.792;12.960;2023-03-01T12:56:10;6.45;;;2.50;;
70433;SDS011;57876;47.792;12.960;2023-03-01T13:06:15;6.88;;;3.10;;
70433;SDS011;57876;47.792;12.960;2023-03-01T13:11:33;8.63;;;3.63;;
70433;SDS011;57876;47.792;12.960;2023-03-01T13:16:45;8.02;;;3.10;;
70433;SDS011;57876;47.792;12.960;2023-03-01T13:19:13;7.10;;;3.40;;
70433;SDS011;57876;47.792;12.960;2023-03-01T13:21:39;6.93;;;3.00;;
70433;SDS011;57876;47.792;12.960;2023-03-01T13:24:04;8.45;;;3.35;;
70433;SDS011;57876;47.792;12.960;2023-03-01T13:29:30;7.07;;;3.10;;
70433;SDS011;57876;47.792;12.960;2023-03-01T13:32:18;8.70;;;3.30;;
70433;SDS011;57876;47.792;12.960;2023-03-01T13:34:52;10.77;;;3.08;;
70433;SDS011;57876;47.792;12.960;2023-03-01T13:37:22;7.25;;;3.05;;
70433;SDS011;57876;47.792;12.960;2023-03-01T13:39:49;7.10;;;2.80;;
70433;SDS011;57876;47.792;12.960;2023-03-01T13:42:57;7.60;;;3.33;;
70433;SDS011;57876;47.792;12.960;2023-03-01T13:45:12;7.47;;;3.20;;
70433;SDS011;57876;47.792;12.960;2023-03-01T13:47:45;8.07;;;3.45;;
70433;SDS011;57876;47.792;12.960;2023-03-01T13:50:18;6.60;;;3.10;;
70433;SDS011;57876;47.792;12.960;2023-03-01T13:52:49;6.72;;;3.05;;
70433;SDS011;57876;47.792;12.960;2023-03-01T13:57:56;7.60;;;3.23;;
70433;SDS011;57876;47.792;12.960;2023-03-01T14:00:30;7.18;;;2.90;;
70433;SDS011;57876;47.792;12.960;2023-03-01T14:03:09;7.10;;;2.83;;
70433;SDS011;57876;47.792;12.960;2023-03-01T14:05:34;6.63;;;3.20;;
70433;SDS011;57876;47.792;12.960;2023-03-01T14:08:00;6.50;;;2.75;;
70433;SDS011;57876;47.792;12.960;2023-03-01T14:10:25;7.27;;;3.03;;
70433;SDS011;57876;47.792;12.960;2023-03-01T14:13:30;7.17;;;3.10;;
70433;SDS011;57876;47.792;12.960;2023-03-01T14:16:19;6.68;;;2.92;;
70433;SDS011;57876;47.792;12.960;2023-03-01T14:21:44;6.65;;;3.10;;
70433;SDS011;57876;47.792;12.960;2023-03-01T14:24:17;7.45;;;3.15;;
70433;SDS011;57876;47.792;12.960;2023-03-01T14:26:44;8.30;;;3.03;;
70433;SDS011;57876;47.792;12.960;2023-03-01T14:29:23;7.45;;;2.95;;
70433;SDS011;57876;47.792;12.960;2023-03-01T14:32:12;6.77;;;2.83;;
70433;SDS011;57876;47.792;12.960;2023-03-01T14:34:44;7.38;;;2.92;;
70433;SDS011;57876;47.792;12.960;2023-03-01T14:37:10;6.50;;;3.00;;
70433;SDS011;57876;47.792;12.960;2023-03-01T14:39:47;6.38;;;2.90;;
70433;SDS011;57876;47.792;12.960;2023-03-01T14:42:12;7.53;;;3.20;;
70433;SDS011;57876;47.792;12.960;2023-03-01T14:44:37;7.53;;;3.40;;
70433;SDS011;57876;47.792;12.960;2023-03-01T14:47:01;6.93;;;2.90;;
70433;SDS011;57876;47.792;12.960;2023-03-01T14:49:27;6.57;;;2.73;;
70433;SDS011;57876;47.792;12.960;2023-03-01T14:54:25;7.43;;;3.13;;
70433;SDS011;57876;47.792;12.960;2023-03-01T14:56:52;6.83;;;2.70;;
70433;SDS011;57876;47.792;12.960;2023-03-01T14:59:22;7.50;;;3.08;;
70433;SDS011;57876;47.792;12.960;2023-03-01T15:01:47;5.95;;;2.65;;
70433;SDS011;57876;47.792;12.960;2023-03-01T15:04:12;7.55;;;2.90;;
70433;SDS011;57876;47.792;12.960;2023-03-01T15:06:38;7.25;;;2.80;;
70433;SDS011;57876;47.792;12.960;2023-03-01T15:09:03;7.80;;;3.30;;
70433;SDS011;57876;47.792;12.960;2023-03-01T15:11:29;8.13;;;3.17;;
70433;SDS011;57876;47.792;12.960;2023-03-01T15:13:55;7.82;;;3.35;;
70433;SDS011;57876;47.792;12.960;2023-03-01T15:16:21;7.10;;;3.07;;
70433;SDS011;57876;47.792;12.960;2023-03-01T15:18:49;6.97;;;2.88;;
70433;SDS011;57876;47.792;12.960;2023-03-01T15:21:18;6.80;;;3.10;;
70433;SDS011;57876;47.792;12.960;2023-03-01T15:23:50;8.00;;;3.30;;
70433;SDS011;57876;47.792;12.960;2023-03-01T15:26:24;7.57;;;3.00;;
70433;SDS011;57876;47.792;12.960;2023-03-01T15:28:53;6.90;;;2.80;;
70433;SDS011;57876;47.792;12.960;2023-03-01T15:31:23;7.40;;;3.10;;
70433;SDS011;57876;47.792;12.960;2023-03-01T15:33:49;6.80;;;3.10;;
70433;SDS011;57876;47.792;12.960;2023-03-01T15:36:31;8.27;;;3.20;;
70433;SDS011;57876;47.792;12.960;2023-03-01T15:42:01;7.68;;;3.30;;
70433;SDS011;57876;47.792;12.960;2023-03-01T15:44:33;6.75;;;2.60;;
70433;SDS011;57876;47.792;12.960;2023-03-01T15:47:00;9.38;;;3.10;;
70433;SDS011;57876;47.792;12.960;2023-03-01T15:49:41;6.83;;;2.87;;
70433;SDS011;57876;47.792;12.960;2023-03-01T15:52:12;7.45;;;3.10;;
70433;SDS011;57876;47.792;12.960;2023-03-01T15:54:52;6.60;;;2.88;;
70433;SDS011;57876;47.792;12.960;2023-03-01T15:57:17;6.37;;;2.43;;
70433;SDS011;57876;47.792;12.960;2023-03-01T15:59:41;6.77;;;2.60;;
70433;SDS011;57876;47.792;12.960;2023-03-01T16:02:09;6.43;;;2.70;;
70433;SDS011;57876;47.792;12.960;2023-03-01T16:04:36;7.53;;;2.75;;
70433;SDS011;57876;47.792;12.960;2023-03-01T16:07:01;7.30;;;2.63;;
70433;SDS011;57876;47.792;12.960;2023-03-01T16:09:25;6.82;;;3.05;;
70433;SDS011;57876;47.792;12.960;2023-03-01T16:11:50;6.80;;;3.07;;
70433;SDS011;57876;47.792;12.960;2023-03-01T16:14:16;6.50;;;2.80;;
70433;SDS011;57876;47.792;12.960;2023-03-01T16:16:40;6.60;;;2.80;;
70433;SDS011;57876;47.792;12.960;2023-03-01T16:19:05;16.93;;;2.93;;
70433;SDS011;57876;47.792;12.960;2023-03-01T16:21:29;96.40;;;6.35;;
70433;SDS011;57876;47.792;12.960;2023-03-01T16:23:54;89.70;;;5.67;;
70433;SDS011;57876;47.792;12.960;2023-03-01T16:26:19;61.90;;;4.27;;